Elba, AL (36323)

11:44 PM CDT on October 24, 2014 (GMT -0500)
Shiloh Community | Change Station
CLOSE
Current Station
Personal Weather Station
Location: Elba, AL
Elevation: 400 ft
Nearby Weather Stations

Elev 400 ft 31.39 °N, 86.01 °W | Updated 7 seconds ago

Clear
Clear
51.7 °F
Feels Like 51.7 °F
N
0.0
Wind Variable Wind from North
Gusts 0.0 mph

Today
High -- | Low -- °F
--% Chance of Precip.
Yesterday
High -- | Low -- °F
Precip. -- in
6:53 AM 6:02 PM
New Moon, 2% visible
Pressure 30.04 in
Visibility 9.0 miles
Clouds Clear
Dew Point 46 °F
Humidity 81%
Rainfall 0.00 in
Snow Depth Not available.
UV 0 out of 12
Pollen 2.00 out of 12
Air Quality Not available.
Flu Activity Sporadic
METAR KLOR 250353Z AUTO 00000KT 9SM CLR 09/08 A3004 RMK AO2 SLP170 T00890078 TSNO $

More Conditions Fewer Conditions

Pressure 30.04 in
Visibility 9.0 miles
Clouds Clear
Dew Point 46 °F
Humidity 81%
Rainfall 0.00 in
Snow Depth Not available.
UV 0 out of 12
Pollen 2.00 out of 12
Air Quality Not available.
Flu Activity Sporadic
METAR KLOR 250353Z AUTO 00000KT 9SM CLR 09/08 A3004 RMK AO2 SLP170 T00890078 TSNO $

More Conditions Fewer Conditions

10-Day Weather Forecast

Almanac

Astronomy

Oct. 24, 2014 Rise Set
Actual Time 6:53 AM CDT 6:02 PM CDT
Civil Twilight 6:29 AM CDT 6:27 PM CDT
Nautical Twilight 6:00 AM CDT 6:55 PM CDT
Astronomical Twilight 5:32 AM CDT 7:24 PM CDT
Moon 7:30 AM CDT (10/24) 6:45 PM CDT (10/24)
Length of Visible Light 11h 58m
Length of Day
11h 08m
Tomorrow will be 1m 45s shorter.
New Moon, 2% of the Moon is Illuminated
Oct 25
New Moon
Oct 30
First Quarter
Nov 6
Full
Nov 14
Last Quarter
Nov 22
New

Yesterday's Extremes

State Highs State Lows

Community

WunderPhotos

Upload Photos

1,764,784 photos uploaded!

Nearby

Snow Depth

Station Depth Elevation
No new snow has been reported.

Earthquake Activity

City Distance Mag. Time & Date
No recent earthquake activity has been reported nearby.
Minimum magnitude displayed is 2.5.

Coastal Water Temperatures

Place Temperature
No Stations Reporting

Nearby Weather Stations